createdAt,value
2023-04-13T00:01:36.676Z,83.50
2023-04-13T00:05:39.638Z,83.34
2023-04-13T00:09:41.782Z,83.30
2023-04-13T00:13:47.638Z,84.05
2023-04-13T00:17:49.712Z,84.62
2023-04-13T00:21:55.064Z,85.43
2023-04-13T00:25:57.045Z,85.91
2023-04-13T00:29:59.076Z,86.51
2023-04-13T00:34:01.362Z,87.65
2023-04-13T00:38:04.318Z,87.79
2023-04-13T00:42:08.614Z,89.00
2023-04-13T00:46:11.028Z,89.76
2023-04-13T00:50:14.001Z,89.76
2023-04-13T00:54:16.860Z,90.04
2023-04-13T00:58:18.929Z,90.50
2023-04-13T01:02:26.529Z,90.78
2023-04-13T01:06:33.865Z,90.69
2023-04-13T01:10:43.138Z,91.08
2023-04-13T01:14:55.023Z,91.22
2023-04-13T01:18:57.435Z,91.21
2023-04-13T01:23:03.082Z,91.86
2023-04-13T01:27:12.940Z,92.13
2023-04-13T01:31:17.171Z,92.15
2023-04-13T01:35:21.084Z,91.99
2023-04-13T01:39:25.458Z,91.61
2023-04-13T01:43:37.412Z,91.25
2023-04-13T01:47:59.833Z,91.17
2023-04-13T01:52:11.991Z,90.98
2023-04-13T01:56:19.153Z,91.29
2023-04-13T02:00:22.872Z,91.63
2023-04-13T02:04:25.477Z,91.90
2023-04-13T02:08:27.752Z,91.56
2023-04-13T02:12:29.788Z,92.26
2023-04-13T02:16:34.402Z,92.66
2023-04-13T02:20:43.484Z,92.85
2023-04-13T02:24:45.485Z,92.38
2023-04-13T02:28:50.073Z,92.31
2023-04-13T02:32:52.746Z,91.23
2023-04-13T02:36:55.679Z,90.63
2023-04-13T02:41:02.000Z,89.72
2023-04-13T02:45:06.531Z,89.17
2023-04-13T02:49:09.535Z,88.37
2023-04-13T02:53:17.992Z,87.85
2023-04-13T02:57:25.095Z,86.70
2023-04-13T03:01:29.464Z,87.50
2023-04-13T03:05:31.924Z,87.78
2023-04-13T03:09:34.555Z,87.06
2023-04-13T03:13:36.946Z,86.13
2023-04-13T03:17:43.961Z,86.16
2023-04-13T03:21:50.105Z,85.83
2023-04-13T03:25:56.010Z,84.92
2023-04-13T03:29:58.839Z,84.97
2023-04-13T03:34:02.328Z,85.09
2023-04-13T03:38:04.984Z,85.20
2023-04-13T03:42:11.843Z,84.61
2023-04-13T03:46:19.536Z,83.79
2023-04-13T03:50:21.707Z,83.68
2023-04-13T03:54:25.849Z,84.07
2023-04-13T03:58:28.542Z,83.76
2023-04-13T04:02:31.030Z,83.73
2023-04-13T04:06:33.514Z,83.98
2023-04-13T04:10:44.447Z,83.12
2023-04-13T04:14:47.509Z,83.52
2023-04-13T04:18:54.635Z,83.59
2023-04-13T04:23:00.945Z,83.93
2023-04-13T04:27:07.694Z,84.25
2023-04-13T04:31:12.936Z,84.31
2023-04-13T04:35:25.991Z,84.67
2023-04-13T04:39:32.833Z,84.28
2023-04-13T04:43:46.114Z,84.56
2023-04-13T04:47:50.429Z,85.01
2023-04-13T04:51:57.420Z,85.30
2023-04-13T04:55:59.916Z,85.50
2023-04-13T05:00:15.836Z,85.47
2023-04-13T05:04:23.388Z,85.32
2023-04-13T05:08:28.545Z,86.01
2023-04-13T05:12:30.945Z,86.36
2023-04-13T05:16:34.239Z,86.12
2023-04-13T05:20:43.134Z,85.87
2023-04-13T05:24:45.553Z,86.24
2023-04-13T05:28:49.855Z,85.69
2023-04-13T05:32:52.180Z,86.34
2023-04-13T05:36:55.490Z,87.63
2023-04-13T05:40:58.646Z,90.01
2023-04-13T05:45:01.383Z,88.54
2023-04-13T05:49:04.394Z,87.29
2023-04-13T05:53:06.678Z,86.90
2023-04-13T05:57:20.920Z,86.88
2023-04-13T06:01:25.812Z,86.30
2023-04-13T06:05:31.831Z,86.13
2023-04-13T06:09:33.877Z,85.78
2023-04-13T06:13:36.324Z,86.12
2023-04-13T06:17:38.379Z,86.38
2023-04-13T06:21:41.094Z,85.47
2023-04-13T06:25:43.463Z,85.21
2023-04-13T06:29:47.554Z,85.75
2023-04-13T06:33:50.416Z,85.98
2023-04-13T06:38:00.306Z,86.01
2023-04-13T06:42:07.971Z,86.25
2023-04-13T06:46:35.702Z,84.46
2023-04-13T06:50:44.650Z,84.02
2023-04-13T06:54:47.310Z,85.10
2023-04-13T06:59:04.918Z,84.94
2023-04-13T07:03:07.235Z,84.46
2023-04-13T07:07:12.323Z,84.43
2023-04-13T07:11:14.867Z,85.88
2023-04-13T07:15:17.288Z,86.74
2023-04-13T07:19:23.635Z,87.33
2023-04-13T07:23:26.557Z,87.52
2023-04-13T07:27:28.673Z,87.42
2023-04-13T07:31:31.325Z,85.45
2023-04-13T07:35:33.660Z,83.36
2023-04-13T07:39:35.908Z,80.69
2023-04-13T07:43:38.643Z,79.23
2023-04-13T07:47:45.253Z,78.36
2023-04-13T07:51:47.490Z,79.09
2023-04-13T07:55:51.121Z,79.21
2023-04-13T07:59:53.381Z,80.14
2023-04-13T08:03:55.707Z,79.75
2023-04-13T08:07:59.645Z,79.70
2023-04-13T08:12:03.621Z,80.82
2023-04-13T08:16:06.404Z,80.19
2023-04-13T08:20:09.312Z,81.54
2023-04-13T08:24:11.562Z,81.70
2023-04-13T08:28:13.611Z,81.62
2023-04-13T08:32:16.234Z,80.96
2023-04-13T08:36:18.646Z,80.59
2023-04-13T08:40:26.663Z,80.07
2023-04-13T08:44:32.650Z,80.19
2023-04-13T08:48:52.651Z,79.46
2023-04-13T08:52:59.461Z,78.33
2023-04-13T08:57:02.805Z,77.65
2023-04-13T09:01:06.395Z,76.36
2023-04-13T09:05:15.834Z,75.25
2023-04-13T09:09:22.684Z,75.82
2023-04-13T09:13:27.343Z,75.38
2023-04-13T09:17:35.124Z,74.92
2023-04-13T09:21:39.457Z,73.25
2023-04-13T09:25:42.129Z,71.95
2023-04-13T09:29:55.528Z,72.22
2023-04-13T09:33:57.707Z,72.90
2023-04-13T09:38:00.127Z,71.66
2023-04-13T09:42:10.188Z,71.72
2023-04-13T09:46:14.037Z,69.99
2023-04-13T09:50:23.713Z,68.50
2023-04-13T09:54:25.902Z,68.29
2023-04-13T09:58:28.726Z,69.31
2023-04-13T10:02:31.009Z,67.19
2023-04-13T10:06:40.815Z,68.24
2023-04-13T10:10:42.897Z,66.71
2023-04-13T10:14:48.857Z,66.75
2023-04-13T10:19:23.378Z,64.99
2023-04-13T10:23:28.032Z,63.13
2023-04-13T10:27:30.049Z,62.76
2023-04-13T10:31:51.381Z,62.51
2023-04-13T10:35:58.216Z,61.69
2023-04-13T10:40:09.011Z,63.30
2023-04-13T10:44:11.189Z,62.39
2023-04-13T10:48:21.291Z,61.42
2023-04-13T10:52:23.284Z,60.94
2023-04-13T10:56:26.100Z,59.63
2023-04-13T11:00:44.621Z,60.44
2023-04-13T11:04:48.435Z,60.44
2023-04-13T11:08:59.624Z,61.11
2023-04-13T11:13:02.025Z,62.31
2023-04-13T11:17:08.342Z,62.18
2023-04-13T11:21:17.074Z,61.92
2023-04-13T11:25:20.402Z,61.50
2023-04-13T11:29:22.505Z,61.26
2023-04-13T11:33:29.985Z,60.02
2023-04-13T11:37:38.126Z,59.88
2023-04-13T11:41:41.296Z,57.89
2023-04-13T11:45:44.427Z,55.09
2023-04-13T11:49:48.056Z,62.72
2023-04-13T11:53:51.366Z,66.92
2023-04-13T11:57:54.164Z,69.83
2023-04-13T12:02:02.862Z,71.04
2023-04-13T12:06:07.715Z,73.20
2023-04-13T12:10:11.160Z,75.86
2023-04-13T12:18:31.158Z,80.59
2023-04-13T12:22:52.395Z,79.16
2023-04-13T12:27:17.867Z,76.53
2023-04-13T12:31:21.257Z,71.20
2023-04-13T12:35:23.422Z,66.05
2023-04-13T12:39:25.766Z,63.42
2023-04-13T12:43:28.188Z,63.39
2023-04-13T12:47:30.319Z,67.96
2023-04-13T12:51:32.347Z,70.60
2023-04-13T12:55:34.379Z,74.44
2023-04-13T12:59:36.390Z,75.69
2023-04-13T13:03:38.491Z,75.52
2023-04-13T13:07:40.574Z,75.38
2023-04-13T13:11:42.620Z,76.49
2023-04-13T13:15:44.707Z,76.73
2023-04-13T13:19:46.709Z,78.08
2023-04-13T13:23:49.608Z,78.27
2023-04-13T13:28:10.194Z,78.82
2023-04-13T13:32:14.157Z,77.55
2023-04-13T13:36:16.647Z,77.17
2023-04-13T13:40:18.711Z,76.19
2023-04-13T13:44:20.974Z,74.85
2023-04-13T13:48:23.990Z,74.66
2023-04-13T13:52:35.002Z,73.25
2023-04-13T13:56:39.292Z,74.17
2023-04-13T14:00:42.053Z,74.39
2023-04-13T14:04:44.134Z,73.34
2023-04-13T14:08:46.661Z,73.23
2023-04-13T14:12:50.800Z,71.63
2023-04-13T14:16:53.091Z,71.15
2023-04-13T14:20:57.325Z,71.27
2023-04-13T14:24:59.412Z,70.77
2023-04-13T14:29:01.508Z,70.05
2023-04-13T14:33:04.229Z,69.94
2023-04-13T14:37:06.516Z,69.69
2023-04-13T14:41:08.557Z,68.82
2023-04-13T14:45:12.294Z,66.39
2023-04-13T14:49:16.506Z,66.86
2023-04-13T14:53:18.579Z,66.35
2023-04-13T14:57:20.825Z,66.35
2023-04-13T15:01:24.276Z,68.63
2023-04-13T15:05:26.558Z,70.15
2023-04-13T15:09:28.665Z,71.65
2023-04-13T15:13:30.774Z,72.58
2023-04-13T15:17:32.918Z,72.37
2023-04-13T15:21:36.137Z,71.37
2023-04-13T15:25:38.439Z,70.40
2023-04-13T15:29:40.481Z,69.36
2023-04-13T15:33:42.932Z,67.28
2023-04-13T15:37:44.914Z,64.77
2023-04-13T15:41:46.942Z,64.29
2023-04-13T15:45:49.001Z,63.39
2023-04-13T15:49:51.048Z,63.94
2023-04-13T15:53:53.082Z,62.02
2023-04-13T15:57:56.901Z,63.22
2023-04-13T16:01:59.082Z,62.64
2023-04-13T16:06:01.979Z,61.66
2023-04-13T16:10:04.407Z,60.46
2023-04-13T16:14:09.274Z,59.82
2023-04-13T16:18:12.079Z,59.98
2023-04-13T16:22:14.104Z,61.00
2023-04-13T16:26:16.102Z,60.66
2023-04-13T16:30:20.750Z,60.63
2023-04-13T16:34:26.580Z,60.65
2023-04-13T16:38:28.902Z,64.32
2023-04-13T16:42:31.519Z,65.82
2023-04-13T16:46:33.597Z,66.74
2023-04-13T16:50:35.853Z,66.44
2023-04-13T16:54:42.693Z,66.16
2023-04-13T16:58:44.718Z,67.36
2023-04-13T17:02:47.907Z,68.78
2023-04-13T17:06:50.022Z,69.51
2023-04-13T17:10:52.371Z,70.73
2023-04-13T17:14:54.464Z,72.59
2023-04-13T17:18:56.629Z,73.84
2023-04-13T17:22:58.744Z,74.77
2023-04-13T17:27:00.791Z,75.39
2023-04-13T17:31:02.797Z,75.73
2023-04-13T17:35:06.068Z,76.21
2023-04-13T17:39:08.338Z,75.96
2023-04-13T17:43:10.787Z,75.35
2023-04-13T17:47:14.052Z,74.31
2023-04-13T17:51:16.048Z,74.39
2023-04-13T17:55:18.061Z,74.78
2023-04-13T17:59:20.203Z,75.37
2023-04-13T18:03:22.354Z,75.90
2023-04-13T18:07:26.211Z,75.58
2023-04-13T18:11:28.222Z,76.05
2023-04-13T18:15:30.321Z,76.43
2023-04-13T18:19:32.585Z,76.48
2023-04-13T18:23:34.596Z,77.03
2023-04-13T18:27:36.625Z,76.97
2023-04-13T18:31:39.189Z,77.53
2023-04-13T18:35:42.759Z,78.09
2023-04-13T18:39:45.041Z,78.52
2023-04-13T18:43:47.125Z,78.39
2023-04-13T18:47:49.129Z,78.58
2023-04-13T18:51:51.229Z,78.72
2023-04-13T18:55:53.314Z,78.32
2023-04-13T18:59:56.789Z,79.32
2023-04-13T19:03:59.098Z,79.47
2023-04-13T19:08:03.861Z,79.66
2023-04-13T19:12:07.256Z,79.81
2023-04-13T19:16:09.293Z,80.92
2023-04-13T19:20:11.643Z,81.28
2023-04-13T19:24:13.851Z,82.16
2023-04-13T19:28:15.982Z,81.85
2023-04-13T19:32:18.039Z,82.29
2023-04-13T19:36:20.608Z,82.31
2023-04-13T19:40:23.208Z,82.56
2023-04-13T19:44:25.980Z,83.31
2023-04-13T19:48:28.061Z,83.90
2023-04-13T19:52:30.302Z,84.52
2023-04-13T19:56:36.381Z,85.22
2023-04-13T20:00:38.475Z,85.27
2023-04-13T20:04:40.774Z,85.59
2023-04-13T20:08:44.508Z,86.56
2023-04-13T20:12:46.618Z,85.44
2023-04-13T20:16:48.760Z,85.73
2023-04-13T20:20:51.173Z,86.65
2023-04-13T20:24:53.197Z,85.03
2023-04-13T20:29:01.790Z,86.41
2023-04-13T20:33:05.624Z,86.86
2023-04-13T20:37:10.122Z,87.56
2023-04-13T20:41:13.771Z,87.74
2023-04-13T20:45:17.588Z,88.92
2023-04-13T20:49:23.994Z,87.83
2023-04-13T20:53:25.999Z,88.89
2023-04-13T20:57:28.271Z,89.68
2023-04-13T21:01:30.499Z,90.09
2023-04-13T21:05:33.098Z,90.66
2023-04-13T21:09:35.123Z,90.77
2023-04-13T21:13:37.128Z,90.54
2023-04-13T21:17:39.302Z,90.97
2023-04-13T21:21:41.462Z,90.27
2023-04-13T21:25:44.462Z,90.01
2023-04-13T21:29:46.624Z,90.61
2023-04-13T21:33:48.759Z,91.04
2023-04-13T21:37:50.840Z,91.90
2023-04-13T21:41:52.913Z,92.61
2023-04-13T21:45:55.387Z,91.29
2023-04-13T21:49:57.519Z,90.99
2023-04-13T21:53:59.672Z,92.73
2023-04-13T21:58:01.744Z,91.46
2023-04-13T22:02:03.946Z,90.47
2023-04-13T22:06:07.862Z,89.83
2023-04-13T22:10:10.538Z,89.21
2023-04-13T22:14:12.571Z,88.58
2023-04-13T22:18:14.680Z,88.84
2023-04-13T22:22:16.806Z,88.23
2023-04-13T22:26:18.902Z,87.94
2023-04-13T22:30:21.179Z,87.60
2023-04-13T22:34:23.302Z,87.34
2023-04-13T22:38:25.362Z,87.19
2023-04-13T22:42:28.056Z,87.92
2023-04-13T22:46:30.679Z,88.17
2023-04-13T22:50:32.768Z,87.51
2023-04-13T22:54:34.834Z,87.17
2023-04-13T22:58:36.918Z,86.29
2023-04-13T23:02:39.283Z,86.92
2023-04-13T23:06:41.632Z,88.07
2023-04-13T23:10:43.729Z,88.90
2023-04-13T23:14:46.059Z,89.60
2023-04-13T23:18:48.470Z,88.70
2023-04-13T23:22:50.645Z,88.72
2023-04-13T23:26:52.674Z,86.92
2023-04-13T23:31:10.880Z,89.47
2023-04-13T23:35:13.100Z,88.62
2023-04-13T23:39:15.227Z,88.77
2023-04-13T23:43:17.236Z,89.58
2023-04-13T23:47:19.352Z,91.23
2023-04-13T23:51:21.779Z,91.69
2023-04-13T23:55:23.880Z,92.22
2023-04-13T23:59:25.939Z,91.57
